Time;durP1;ratioP1;P1;durP2;ratioP2;P2;SDS_P1;SDS_P2;PMS_P1;PMS_P2;Temp;Humidity;BMP_temperature;BMP_pressure;BME280_temperature;BME280_humidity;BME280_pressure;Samples;Min_cycle;Max_cycle;Signal;HPM_P1;HPM_P2
2022/09/03 00:00:34;;;;;;;3.13;0.80;;;;;;;;;;5002467;28;20108;-73
2022/09/03 00:03:35;;;;;;;0.98;0.68;;;;;;;;;;5003504;28;20045;-73
2022/09/03 00:06:09;;;;;;;1.98;0.60;;;;;;;;;;4988413;28;20046;-73
2022/09/03 00:08:47;;;;;;;2.22;0.90;;;;;;;;;;5000587;28;20639;-73
2022/09/03 00:11:20;;;;;;;1.13;0.80;;;;;;;;;;5003494;28;20034;-75
2022/09/03 00:13:53;;;;;;;2.38;0.70;;;;;;;;;;5003809;28;20061;-73
2022/09/03 00:16:21;;;;;;;0.73;0.70;;;;;;;;;;5002701;28;20057;-73
2022/09/03 00:19:00;;;;;;;1.38;0.77;;;;;;;;;;4996939;28;20053;-73
2022/09/03 00:21:47;;;;;;;1.42;0.60;;;;;;;;;;5003458;28;20413;-73
2022/09/03 00:24:16;;;;;;;0.70;0.60;;;;;;;;;;5000581;28;20046;-73
2022/09/03 00:26:47;;;;;;;3.70;0.90;;;;;;;;;;4997794;28;20042;-73
2022/09/03 00:29:13;;;;;;;2.80;0.70;;;;;;;;;;5003320;28;20036;-73
2022/09/03 00:31:46;;;;;;;2.47;0.93;;;;;;;;;;5005052;28;20029;-74
2022/09/03 00:34:33;;;;;;;1.88;0.82;;;;;;;;;;5002757;28;20454;-73
2022/09/03 00:36:58;;;;;;;1.70;0.90;;;;;;;;;;5003902;28;20077;-73
2022/09/03 00:39:25;;;;;;;1.58;0.80;;;;;;;;;;5000628;28;20761;-73
2022/09/03 00:42:19;;;;;;;2.78;0.80;;;;;;;;;;5004188;28;20045;-73
2022/09/03 00:45:27;;;;;;;1.02;0.60;;;;;;;;;;5002112;28;20065;-74
2022/09/03 00:48:04;;;;;;;2.03;0.80;;;;;;;;;;4998774;28;20049;-74
2022/09/03 00:50:48;;;;;;;0.63;0.60;;;;;;;;;;5003883;28;20044;-75
2022/09/03 00:53:21;;;;;;;0.60;0.60;;;;;;;;;;4999355;28;20438;-75
2022/09/03 00:56:07;;;;;;;1.13;0.70;;;;;;;;;;5000608;28;20034;-74
2022/09/03 00:58:42;;;;;;;4.07;0.60;;;;;;;;;;5004099;28;20076;-74
2022/09/03 01:01:22;;;;;;;0.70;0.70;;;;;;;;;;4998482;28;20050;-75
2022/09/03 01:03:57;;;;;;;1.35;0.80;;;;;;;;;;5000877;28;20058;-73
2022/09/03 01:06:35;;;;;;;1.60;0.82;;;;;;;;;;4999202;28;20046;-73
2022/09/03 01:09:34;;;;;;;1.50;0.90;;;;;;;;;;4980859;28;20111;-73
2022/09/03 01:12:15;;;;;;;1.60;0.75;;;;;;;;;;4987728;28;20057;-74
2022/09/03 01:15:03;;;;;;;1.35;0.70;;;;;;;;;;4997831;28;20108;-74
2022/09/03 01:17:56;;;;;;;1.65;0.85;;;;;;;;;;4999962;28;20533;-76
2022/09/03 01:20:34;;;;;;;0.80;0.60;;;;;;;;;;5002118;28;20077;-74
2022/09/03 01:23:19;;;;;;;2.53;0.70;;;;;;;;;;5005298;28;20045;-74
2022/09/03 01:26:00;;;;;;;1.77;0.60;;;;;;;;;;4997393;28;20053;-73
2022/09/03 01:28:34;;;;;;;2.75;0.73;;;;;;;;;;5000992;28;20114;-74
2022/09/03 01:31:25;;;;;;;2.90;0.70;;;;;;;;;;4996597;28;20407;-73
2022/09/03 01:34:21;;;;;;;3.00;0.60;;;;;;;;;;4999624;28;20037;-73
2022/09/03 01:37:02;;;;;;;5.75;0.80;;;;;;;;;;4999525;28;20050;-74
2022/09/03 01:39:51;;;;;;;1.48;0.80;;;;;;;;;;5000436;28;20073;-74
2022/09/03 01:42:17;;;;;;;2.47;0.70;;;;;;;;;;5000755;28;20400;-72
2022/09/03 01:44:49;;;;;;;1.17;0.70;;;;;;;;;;5000942;28;20046;-74
2022/09/03 01:47:35;;;;;;;1.55;0.68;;;;;;;;;;4998685;28;20915;-73
2022/09/03 01:50:03;;;;;;;2.22;0.70;;;;;;;;;;5002196;28;20441;-73
2022/09/03 01:52:38;;;;;;;1.17;0.50;;;;;;;;;;4997608;28;20050;-73
2022/09/03 01:55:38;;;;;;;2.13;0.70;;;;;;;;;;4998807;28;20050;-73
2022/09/03 01:58:30;;;;;;;2.05;0.82;;;;;;;;;;5000914;28;20117;-74
2022/09/03 02:01:01;;;;;;;3.10;1.25;;;;;;;;;;5000595;28;20054;-74
2022/09/03 02:03:35;;;;;;;1.08;0.75;;;;;;;;;;4981077;28;20492;-73
2022/09/03 02:06:02;;;;;;;1.40;0.88;;;;;;;;;;4999368;28;20111;-73
2022/09/03 02:08:28;;;;;;;1.30;0.70;;;;;;;;;;4999886;28;20046;-73
2022/09/03 02:11:00;;;;;;;1.55;0.93;;;;;;;;;;5000076;28;20104;-73
2022/09/03 02:13:30;;;;;;;0.68;0.68;;;;;;;;;;5001589;28;20077;-73
2022/09/03 02:16:01;;;;;;;1.92;0.77;;;;;;;;;;4996439;28;20560;-73
2022/09/03 02:18:36;;;;;;;1.88;0.65;;;;;;;;;;4998797;28;20045;-73
2022/09/03 02:21:01;;;;;;;1.55;0.70;;;;;;;;;;4996077;28;20050;-74
2022/09/03 02:23:27;;;;;;;2.08;0.50;;;;;;;;;;4997570;28;20053;-73
2022/09/03 02:25:59;;;;;;;1.25;0.60;;;;;;;;;;5001689;28;20403;-74
2022/09/03 02:28:27;;;;;;;2.30;0.80;;;;;;;;;;4996919;28;20476;-74
2022/09/03 02:30:53;;;;;;;1.02;0.70;;;;;;;;;;4983368;28;20058;-73
2022/09/03 02:33:19;;;;;;;2.05;0.75;;;;;;;;;;5001135;28;20045;-73
2022/09/03 02:35:45;;;;;;;0.77;0.60;;;;;;;;;;5002964;28;20476;-75
2022/09/03 02:38:11;;;;;;;2.90;0.88;;;;;;;;;;4982559;28;20038;-74
2022/09/03 02:40:38;;;;;;;2.45;1.10;;;;;;;;;;5001887;28;20022;-74
2022/09/03 02:43:08;;;;;;;0.88;0.65;;;;;;;;;;4997479;28;20076;-73
2022/09/03 02:45:36;;;;;;;1.48;0.57;;;;;;;;;;4996585;28;20068;-73
2022/09/03 02:48:03;;;;;;;0.68;0.68;;;;;;;;;;5000754;28;20054;-73
2022/09/03 02:50:28;;;;;;;2.65;1.10;;;;;;;;;;5009435;28;20149;-75
2022/09/03 02:52:54;;;;;;;1.50;0.70;;;;;;;;;;5003812;28;20112;-74
2022/09/03 02:55:19;;;;;;;4.10;0.70;;;;;;;;;;5006601;28;20060;-74
2022/09/03 02:57:45;;;;;;;2.25;0.88;;;;;;;;;;5001017;28;20510;-73
2022/09/03 03:00:12;;;;;;;1.88;0.60;;;;;;;;;;4982967;28;20111;-73
2022/09/03 03:02:38;;;;;;;1.00;0.60;;;;;;;;;;5004993;28;20042;-73
2022/09/03 03:05:04;;;;;;;2.38;0.63;;;;;;;;;;5005014;28;20806;-70
2022/09/03 03:07:34;;;;;;;1.98;0.70;;;;;;;;;;5008901;28;20034;-73
2022/09/03 03:10:00;;;;;;;0.85;0.73;;;;;;;;;;5002379;28;20065;-74
2022/09/03 03:12:25;;;;;;;0.70;0.70;;;;;;;;;;5004587;28;20064;-73
2022/09/03 03:14:50;;;;;;;1.90;0.88;;;;;;;;;;5003521;28;20084;-73
2022/09/03 03:17:16;;;;;;;1.58;0.70;;;;;;;;;;5007645;28;20033;-75
2022/09/03 03:19:41;;;;;;;1.45;0.70;;;;;;;;;;5004546;28;20132;-74
2022/09/03 03:22:06;;;;;;;1.67;0.68;;;;;;;;;;5009156;28;20092;-74
2022/09/03 03:24:32;;;;;;;2.90;0.65;;;;;;;;;;5009735;28;20084;-74
2022/09/03 03:26:58;;;;;;;1.10;0.50;;;;;;;;;;5011182;28;20056;-73
2022/09/03 03:29:24;;;;;;;1.02;0.85;;;;;;;;;;5003410;28;20243;-73
2022/09/03 03:31:50;;;;;;;0.75;0.63;;;;;;;;;;5005863;28;20045;-74
2022/09/03 03:34:16;;;;;;;2.30;0.70;;;;;;;;;;5006210;28;20052;-74
2022/09/03 03:36:41;;;;;;;1.88;0.68;;;;;;;;;;5004396;28;20042;-74
2022/09/03 03:39:07;;;;;;;0.77;0.70;;;;;;;;;;5003284;28;20050;-72
2022/09/03 03:41:34;;;;;;;1.23;0.70;;;;;;;;;;5001895;28;20046;-73
2022/09/03 03:44:02;;;;;;;0.80;0.80;;;;;;;;;;4982966;28;20485;-72
2022/09/03 03:46:30;;;;;;;4.63;0.85;;;;;;;;;;5001103;28;20127;-73
2022/09/03 03:48:57;;;;;;;1.48;0.70;;;;;;;;;;5007417;28;20054;-74
2022/09/03 03:51:22;;;;;;;1.42;0.60;;;;;;;;;;5004662;28;20104;-74
2022/09/03 03:53:48;;;;;;;3.33;0.70;;;;;;;;;;5003336;28;20050;-73
2022/09/03 03:56:15;;;;;;;1.10;0.77;;;;;;;;;;5009178;28;20641;-73
2022/09/03 03:58:42;;;;;;;2.17;0.70;;;;;;;;;;5005664;28;20099;-74
2022/09/03 04:01:14;;;;;;;2.33;1.00;;;;;;;;;;5000180;28;20054;-74
2022/09/03 04:03:40;;;;;;;1.42;0.88;;;;;;;;;;5008474;28;20053;-73
2022/09/03 04:06:07;;;;;;;1.48;0.70;;;;;;;;;;5003655;28;20537;-73
2022/09/03 04:08:35;;;;;;;0.82;0.60;;;;;;;;;;5001022;28;20480;-75
2022/09/03 04:11:02;;;;;;;2.22;0.75;;;;;;;;;;5001616;28;20388;-74
2022/09/03 04:13:31;;;;;;;1.05;0.60;;;;;;;;;;5002230;28;20053;-74
2022/09/03 04:16:06;;;;;;;3.30;0.70;;;;;;;;;;5000815;28;20156;-74
2022/09/03 04:18:33;;;;;;;2.03;0.60;;;;;;;;;;5000708;28;20053;-74
2022/09/03 04:21:05;;;;;;;2.58;0.68;;;;;;;;;;5003067;28;20487;-73
2022/09/03 04:23:35;;;;;;;0.60;0.60;;;;;;;;;;5007855;28;20050;-73
2022/09/03 04:26:01;;;;;;;0.93;0.63;;;;;;;;;;5002299;28;20030;-74
2022/09/03 04:28:27;;;;;;;1.10;0.70;;;;;;;;;;4999835;28;20053;-73
2022/09/03 04:30:53;;;;;;;1.67;0.70;;;;;;;;;;5003027;28;20407;-73
2022/09/03 04:33:19;;;;;;;2.40;0.70;;;;;;;;;;4988046;28;20061;-73
2022/09/03 04:35:45;;;;;;;1.10;1.00;;;;;;;;;;5002319;28;20381;-75
2022/09/03 04:38:10;;;;;;;3.35;0.68;;;;;;;;;;5002863;28;20095;-72
2022/09/03 04:40:36;;;;;;;5.78;0.80;;;;;;;;;;4977244;28;20034;-73
2022/09/03 04:43:02;;;;;;;2.22;0.70;;;;;;;;;;4984108;28;20057;-72
2022/09/03 04:45:27;;;;;;;0.40;0.40;;;;;;;;;;4984948;28;21122;-72
2022/09/03 04:48:03;;;;;;;0.75;0.75;;;;;;;;;;5000913;28;20046;-72
2022/09/03 04:50:31;;;;;;;2.35;0.70;;;;;;;;;;5004302;28;20595;-72
2022/09/03 04:53:02;;;;;;;1.50;0.90;;;;;;;;;;5003088;28;20245;-73
2022/09/03 04:55:31;;;;;;;0.93;0.80;;;;;;;;;;5002105;28;20041;-71
2022/09/03 04:57:58;;;;;;;2.25;0.60;;;;;;;;;;5006583;28;20101;-72
2022/09/03 05:00:24;;;;;;;1.73;0.90;;;;;;;;;;5000890;28;20146;-66
2022/09/03 05:02:50;;;;;;;1.58;0.70;;;;;;;;;;5004653;28;20049;-65
2022/09/03 05:05:17;;;;;;;1.67;0.90;;;;;;;;;;5002649;28;20029;-65
2022/09/03 05:07:42;;;;;;;0.98;0.82;;;;;;;;;;5005781;28;20031;-65
2022/09/03 05:10:14;;;;;;;1.85;0.70;;;;;;;;;;4999678;28;20046;-65
2022/09/03 05:12:40;;;;;;;3.58;1.23;;;;;;;;;;5003446;28;20077;-65
2022/09/03 05:15:06;;;;;;;3.72;0.90;;;;;;;;;;4986392;28;20042;-66
2022/09/03 05:17:32;;;;;;;1.38;0.80;;;;;;;;;;4999096;28;20056;-65
2022/09/03 05:19:57;;;;;;;1.85;0.82;;;;;;;;;;5002168;28;20022;-65
2022/09/03 05:22:23;;;;;;;2.03;1.05;;;;;;;;;;4998849;28;20061;-66
2022/09/03 05:24:48;;;;;;;0.80;0.80;;;;;;;;;;5001273;28;20164;-66
2022/09/03 05:27:18;;;;;;;1.27;0.70;;;;;;;;;;5001426;28;20108;-65
2022/09/03 05:29:44;;;;;;;2.63;1.08;;;;;;;;;;4996528;28;20054;-66
2022/09/03 05:32:10;;;;;;;4.30;0.93;;;;;;;;;;5000485;28;20040;-67
2022/09/03 05:34:35;;;;;;;2.55;0.98;;;;;;;;;;5003825;28;20026;-66
2022/09/03 05:37:00;;;;;;;1.40;0.85;;;;;;;;;;5004726;28;20045;-65
2022/09/03 05:39:26;;;;;;;6.10;0.80;;;;;;;;;;4996963;28;20131;-66
2022/09/03 05:41:52;;;;;;;2.05;1.10;;;;;;;;;;5000807;28;20107;-64
2022/09/03 05:44:17;;;;;;;4.93;1.10;;;;;;;;;;4999672;28;20076;-65
2022/09/03 05:46:43;;;;;;;1.40;0.80;;;;;;;;;;4997755;28;20129;-64
2022/09/03 05:49:10;;;;;;;3.85;1.10;;;;;;;;;;5004804;28;20140;-64
2022/09/03 05:51:38;;;;;;;3.45;1.00;;;;;;;;;;4984321;28;20045;-65
2022/09/03 05:54:04;;;;;;;2.63;1.10;;;;;;;;;;5000632;28;20081;-66
2022/09/03 05:56:32;;;;;;;7.85;1.25;;;;;;;;;;5002581;28;20176;-66
2022/09/03 05:59:00;;;;;;;8.60;1.10;;;;;;;;;;5001027;28;20026;-66
2022/09/03 06:01:30;;;;;;;3.40;1.20;;;;;;;;;;4996343;28;20038;-66
2022/09/03 06:04:01;;;;;;;6.38;1.38;;;;;;;;;;4997440;28;20424;-64
2022/09/03 06:06:28;;;;;;;5.82;1.52;;;;;;;;;;4997899;28;20477;-67
2022/09/03 06:08:56;;;;;;;5.00;1.15;;;;;;;;;;4995795;28;20053;-65
2022/09/03 06:11:28;;;;;;;6.38;1.20;;;;;;;;;;5001271;28;20095;-65
2022/09/03 06:13:56;;;;;;;3.00;1.38;;;;;;;;;;4999172;28;20044;-65
2022/09/03 06:16:23;;;;;;;3.60;1.20;;;;;;;;;;4996274;28;20100;-65
2022/09/03 06:18:48;;;;;;;4.15;1.35;;;;;;;;;;4998897;28;20070;-65
2022/09/03 06:21:14;;;;;;;3.88;1.35;;;;;;;;;;4999806;28;20131;-67
2022/09/03 06:23:41;;;;;;;3.88;1.40;;;;;;;;;;5001704;28;20479;-65
2022/09/03 06:26:12;;;;;;;3.15;1.40;;;;;;;;;;4999430;28;20041;-65
2022/09/03 06:28:40;;;;;;;4.80;1.38;;;;;;;;;;4996710;28;20064;-65
2022/09/03 06:31:08;;;;;;;3.05;1.30;;;;;;;;;;5001157;28;20053;-65
2022/09/03 06:33:35;;;;;;;1.50;1.23;;;;;;;;;;4983657;28;20049;-65
2022/09/03 06:36:03;;;;;;;4.50;1.83;;;;;;;;;;5003230;28;20057;-65
2022/09/03 06:38:34;;;;;;;2.97;1.40;;;;;;;;;;5000801;28;20239;-65
2022/09/03 06:41:01;;;;;;;3.90;1.48;;;;;;;;;;4999272;28;20409;-66
2022/09/03 06:43:27;;;;;;;3.75;1.50;;;;;;;;;;5001402;28;20042;-64
2022/09/03 06:45:54;;;;;;;3.05;1.77;;;;;;;;;;4999110;28;20629;-65
2022/09/03 06:48:19;;;;;;;7.88;1.58;;;;;;;;;;5000131;28;20069;-66
2022/09/03 06:51:00;;;;;;;2.20;1.52;;;;;;;;;;5002641;28;20088;-66
2022/09/03 06:53:27;;;;;;;2.17;1.35;;;;;;;;;;5001468;28;20046;-64
2022/09/03 06:55:54;;;;;;;2.97;1.55;;;;;;;;;;5001793;28;20408;-65
2022/09/03 06:58:21;;;;;;;6.40;1.77;;;;;;;;;;4999600;28;20046;-66
2022/09/03 07:00:46;;;;;;;2.65;1.77;;;;;;;;;;5000238;28;20053;-65
2022/09/03 07:03:11;;;;;;;3.05;1.40;;;;;;;;;;4998844;28;20041;-65
2022/09/03 07:05:37;;;;;;;1.23;1.13;;;;;;;;;;5001370;28;20038;-65
2022/09/03 07:08:03;;;;;;;2.28;1.08;;;;;;;;;;5002332;28;20437;-64
2022/09/03 07:10:28;;;;;;;4.65;1.20;;;;;;;;;;4978013;28;20050;-65
2022/09/03 07:12:54;;;;;;;2.92;1.40;;;;;;;;;;4999323;28;20046;-65
2022/09/03 07:15:20;;;;;;;5.28;1.33;;;;;;;;;;5001285;28;20091;-65
2022/09/03 07:17:45;;;;;;;2.50;1.40;;;;;;;;;;5000507;28;20128;-65
2022/09/03 07:20:11;;;;;;;3.00;1.40;;;;;;;;;;5006321;28;20459;-65
2022/09/03 07:22:36;;;;;;;5.53;1.55;;;;;;;;;;5003869;28;20815;-66
2022/09/03 07:25:02;;;;;;;4.35;1.40;;;;;;;;;;5002479;28;20075;-66
2022/09/03 07:27:27;;;;;;;6.43;1.30;;;;;;;;;;5001025;28;20524;-65
2022/09/03 07:29:52;;;;;;;3.08;1.90;;;;;;;;;;5001780;28;20053;-65
2022/09/03 07:32:18;;;;;;;3.60;1.20;;;;;;;;;;5001915;28;20026;-66
2022/09/03 07:34:43;;;;;;;4.07;1.75;;;;;;;;;;5003494;28;20037;-65
2022/09/03 07:37:08;;;;;;;1.52;1.35;;;;;;;;;;5003025;28;20133;-66
2022/09/03 07:39:34;;;;;;;1.83;1.60;;;;;;;;;;5004175;28;20088;-65
2022/09/03 07:41:59;;;;;;;1.48;1.35;;;;;;;;;;5002133;28;20465;-65
2022/09/03 07:44:27;;;;;;;4.47;1.30;;;;;;;;;;5004612;28;20042;-66
2022/09/03 07:46:52;;;;;;;4.75;1.83;;;;;;;;;;5001516;28;20037;-65
2022/09/03 07:49:19;;;;;;;3.00;1.55;;;;;;;;;;5003767;28;20054;-67
2022/09/03 07:51:49;;;;;;;3.38;1.60;;;;;;;;;;4999602;28;20048;-66
2022/09/03 07:54:14;;;;;;;5.10;1.70;;;;;;;;;;4996655;28;20072;-65
2022/09/03 07:56:40;;;;;;;6.65;1.70;;;;;;;;;;4994012;28;20049;-65
2022/09/03 07:59:05;;;;;;;2.60;1.52;;;;;;;;;;4995510;28;20456;-65
2022/09/03 08:01:31;;;;;;;6.65;2.10;;;;;;;;;;4996529;28;20033;-65
2022/09/03 08:03:57;;;;;;;4.95;1.77;;;;;;;;;;4997359;28;20227;-65
2022/09/03 08:06:26;;;;;;;3.70;1.73;;;;;;;;;;4991910;28;20046;-65
2022/09/03 08:09:00;;;;;;;4.95;1.80;;;;;;;;;;4989847;28;20478;-65
2022/09/03 08:11:27;;;;;;;4.30;1.75;;;;;;;;;;4994537;28;20058;-66
2022/09/03 08:14:00;;;;;;;4.20;1.60;;;;;;;;;;4993072;28;20132;-65
2022/09/03 08:16:27;;;;;;;1.92;1.50;;;;;;;;;;4992152;28;20050;-65
2022/09/03 08:18:53;;;;;;;5.47;1.50;;;;;;;;;;4992503;28;20099;-66
2022/09/03 08:21:19;;;;;;;2.38;1.50;;;;;;;;;;4997472;28;20137;-65
2022/09/03 08:23:53;;;;;;;3.20;1.50;;;;;;;;;;5004135;28;20720;-66
2022/09/03 08:26:20;;;;;;;6.78;1.60;;;;;;;;;;5004732;28;20064;-65
2022/09/03 08:28:46;;;;;;;6.32;1.88;;;;;;;;;;5003831;28;20033;-65
2022/09/03 08:31:18;;;;;;;2.95;1.65;;;;;;;;;;5006159;28;20482;-66
2022/09/03 08:33:48;;;;;;;1.88;1.50;;;;;;;;;;5007019;28;20540;-65
2022/09/03 08:36:16;;;;;;;4.65;1.52;;;;;;;;;;5007566;28;20049;-64
2022/09/03 08:38:45;;;;;;;13.95;2.80;;;;;;;;;;5000390;28;20056;-65
2022/09/03 08:41:22;;;;;;;3.20;1.75;;;;;;;;;;4999304;28;20042;-65
2022/09/03 08:44:08;;;;;;;2.95;1.83;;;;;;;;;;5009115;28;20088;-65
2022/09/03 08:46:52;;;;;;;4.82;1.63;;;;;;;;;;5004523;28;20527;-67
2022/09/03 08:50:02;;;;;;;5.15;1.60;;;;;;;;;;5006765;28;20050;-71
2022/09/03 08:52:36;;;;;;;3.72;1.40;;;;;;;;;;5002217;28;20054;-64
2022/09/03 08:55:25;;;;;;;6.55;1.90;;;;;;;;;;5003155;28;20060;-64
2022/09/03 08:58:03;;;;;;;4.32;1.45;;;;;;;;;;4996769;28;20080;-65
2022/09/03 09:01:00;;;;;;;4.05;1.65;;;;;;;;;;4995991;28;20049;-65
2022/09/03 09:03:26;;;;;;;7.57;1.85;;;;;;;;;;4994548;28;20192;-65
2022/09/03 09:06:19;;;;;;;2.55;1.60;;;;;;;;;;5009210;28;20168;-65
2022/09/03 09:08:56;;;;;;;11.93;3.08;;;;;;;;;;5000244;28;20519;-65
2022/09/03 09:11:27;;;;;;;3.10;1.80;;;;;;;;;;4992743;28;20042;-65
2022/09/03 09:14:01;;;;;;;3.85;1.70;;;;;;;;;;4994974;28;20108;-66
2022/09/03 09:16:46;;;;;;;5.57;2.10;;;;;;;;;;4994357;28;20081;-65
2022/09/03 09:19:27;;;;;;;6.50;1.83;;;;;;;;;;4992174;28;20046;-65
2022/09/03 09:22:00;;;;;;;2.50;1.63;;;;;;;;;;4995069;28;20708;-65
2022/09/03 09:24:32;;;;;;;23.08;10.95;;;;;;;;;;4998796;28;20044;-66
2022/09/03 09:27:01;;;;;;;2.70;1.95;;;;;;;;;;4993825;28;20046;-65
2022/09/03 09:29:35;;;;;;;3.22;1.52;;;;;;;;;;4996780;28;20095;-65
2022/09/03 09:32:00;;;;;;;5.07;1.95;;;;;;;;;;4996378;28;20043;-64
2022/09/03 09:34:26;;;;;;;2.47;1.70;;;;;;;;;;4994975;28;20053;-66
2022/09/03 09:36:54;;;;;;;2.63;1.45;;;;;;;;;;4994743;28;20107;-64
2022/09/03 09:39:20;;;;;;;1.90;1.55;;;;;;;;;;4995260;28;20042;-64
2022/09/03 09:42:07;;;;;;;4.97;1.90;;;;;;;;;;5002742;28;20080;-65
2022/09/03 09:44:33;;;;;;;3.70;1.55;;;;;;;;;;5002878;28;20042;-66
2022/09/03 09:47:09;;;;;;;5.53;1.63;;;;;;;;;;4999174;28;20034;-65
2022/09/03 09:49:49;;;;;;;3.78;1.77;;;;;;;;;;5000843;28;20570;-66
2022/09/03 09:52:15;;;;;;;2.70;1.45;;;;;;;;;;4999177;28;20177;-65
2022/09/03 09:54:42;;;;;;;2.13;1.58;;;;;;;;;;5002513;28;20053;-66
2022/09/03 09:57:17;;;;;;;6.03;1.50;;;;;;;;;;4998216;28;20493;-64
2022/09/03 09:59:44;;;;;;;2.83;1.55;;;;;;;;;;5000216;28;20077;-65
2022/09/03 10:02:27;;;;;;;2.38;1.50;;;;;;;;;;4997343;28;20026;-65
2022/09/03 10:05:11;;;;;;;7.20;1.73;;;;;;;;;;5005224;28;20038;-67
2022/09/03 10:07:37;;;;;;;3.85;1.60;;;;;;;;;;5004520;28;20062;-66
2022/09/03 10:10:08;;;;;;;4.30;1.83;;;;;;;;;;4998841;28;20057;-65
2022/09/03 10:12:43;;;;;;;4.63;1.75;;;;;;;;;;4999720;28;20062;-65
2022/09/03 10:15:27;;;;;;;3.90;2.10;;;;;;;;;;5004044;28;20026;-66
2022/09/03 10:17:59;;;;;;;5.35;3.30;;;;;;;;;;5001755;28;20407;-65
2022/09/03 10:20:30;;;;;;;5.07;2.42;;;;;;;;;;5010173;28;20060;-65
2022/09/03 10:31:23;;;;;;;3.95;1.98;;;;;;;;;;1343055;26;20043;-62
2022/09/03 10:34:20;;;;;;;2.28;1.60;;;;;;;;;;4952797;28;20177;-62
2022/09/03 10:37:23;;;;;;;3.47;1.77;;;;;;;;;;4985334;28;20456;-62
2022/09/03 10:40:14;;;;;;;2.00;1.75;;;;;;;;;;4982327;28;20046;-63
2022/09/03 10:42:45;;;;;;;3.78;2.10;;;;;;;;;;4981785;28;20050;-63
2022/09/03 10:45:33;;;;;;;3.75;1.88;;;;;;;;;;4982458;28;20251;-63
2022/09/03 10:48:26;;;;;;;4.32;1.90;;;;;;;;;;4983454;28;20055;-63
2022/09/03 10:51:10;;;;;;;6.78;1.75;;;;;;;;;;4984757;28;20054;-62
2022/09/03 10:53:46;;;;;;;3.22;1.90;;;;;;;;;;4982385;28;20056;-72
2022/09/03 10:56:21;;;;;;;3.40;1.83;;;;;;;;;;4984697;28;20038;-72
2022/09/03 10:58:59;;;;;;;2.30;2.00;;;;;;;;;;4986864;28;20880;-73
2022/09/03 11:02:02;;;;;;;2.47;1.80;;;;;;;;;;4981971;28;20399;-73
2022/09/03 11:04:50;;;;;;;2.13;1.70;;;;;;;;;;4986235;28;20050;-73
2022/09/03 11:07:20;;;;;;;3.47;2.00;;;;;;;;;;4980190;28;20436;-72
2022/09/03 11:09:53;;;;;;;2.45;1.90;;;;;;;;;;4987164;28;20050;-73
2022/09/03 11:12:38;;;;;;;5.57;2.22;;;;;;;;;;4985773;28;20046;-75
2022/09/03 11:15:14;;;;;;;5.18;2.10;;;;;;;;;;4986826;28;20412;-69
2022/09/03 11:17:51;;;;;;;6.00;2.10;;;;;;;;;;4976269;28;20057;-70
2022/09/03 11:20:20;;;;;;;4.43;2.10;;;;;;;;;;4986427;28;20552;-69
2022/09/03 11:22:48;;;;;;;4.20;1.80;;;;;;;;;;4984518;28;20042;-70
2022/09/03 11:25:18;;;;;;;2.47;2.10;;;;;;;;;;4987698;28;20046;-70
2022/09/03 11:28:07;;;;;;;2.67;2.00;;;;;;;;;;4986814;28;20133;-70
2022/09/03 11:30:48;;;;;;;3.42;2.03;;;;;;;;;;4951882;28;20506;-71
2022/09/03 11:33:18;;;;;;;2.70;1.88;;;;;;;;;;4959324;28;20078;-69
2022/09/03 11:35:44;;;;;;;3.05;2.00;;;;;;;;;;4959524;28;20370;-70
2022/09/03 11:38:15;;;;;;;3.53;2.20;;;;;;;;;;4968390;28;20569;-70
2022/09/03 11:41:09;;;;;;;2.88;2.13;;;;;;;;;;4968766;28;20055;-69
2022/09/03 11:43:38;;;;;;;2.83;1.98;;;;;;;;;;4968625;28;21196;-71
2022/09/03 11:46:10;;;;;;;3.05;1.80;;;;;;;;;;4954252;28;20046;-72
2022/09/03 11:48:43;;;;;;;5.18;1.80;;;;;;;;;;4964648;28;20023;-72
2022/09/03 11:51:32;;;;;;;4.63;2.25;;;;;;;;;;4964166;28;20051;-69
2022/09/03 11:54:08;;;;;;;4.07;2.75;;;;;;;;;;4972351;28;20043;-70
2022/09/03 11:56:35;;;;;;;2.97;2.13;;;;;;;;;;4960106;28;20039;-68
2022/09/03 11:59:13;;;;;;;2.55;2.03;;;;;;;;;;4964715;28;20078;-71
2022/09/03 12:02:05;;;;;;;1.60;1.50;;;;;;;;;;4959258;28;20055;-68
2022/09/03 12:04:37;;;;;;;3.55;1.60;;;;;;;;;;4964721;28;20051;-68
2022/09/03 12:07:35;;;;;;;3.63;2.35;;;;;;;;;;4955005;28;20444;-71
2022/09/03 12:16:21;;;;;;;3.60;1.75;;;;;;;;;;5753900;23;20087;-62
2022/09/03 12:18:51;;;;;;;2.85;1.88;;;;;;;;;;5024453;28;20375;-60
2022/09/03 12:21:17;;;;;;;2.85;1.80;;;;;;;;;;5030213;28;20084;-60
2022/09/03 12:23:48;;;;;;;2.10;1.80;;;;;;;;;;5024158;28;20467;-62
2022/09/03 12:26:15;;;;;;;3.45;2.40;;;;;;;;;;5028080;28;20457;-62
2022/09/03 12:28:42;;;;;;;2.80;2.10;;;;;;;;;;5029180;28;20087;-60
2022/09/03 12:31:29;;;;;;;3.80;1.63;;;;;;;;;;5023530;28;20128;-61
2022/09/03 12:33:58;;;;;;;2.38;1.70;;;;;;;;;;5033153;28;20505;-60
2022/09/03 12:36:24;;;;;;;2.33;1.60;;;;;;;;;;5022859;28;20033;-60
2022/09/03 12:38:51;;;;;;;2.10;1.65;;;;;;;;;;5030373;28;20402;-63
2022/09/03 12:41:22;;;;;;;2.28;1.55;;;;;;;;;;5031614;28;20041;-62
2022/09/03 12:43:56;;;;;;;2.97;1.80;;;;;;;;;;5027088;28;20450;-60
2022/09/03 12:56:53;;;;;;;3.05;1.40;;;;;;;;;;5444546;22;20586;-62
2022/09/03 12:59:20;;;;;;;2.08;1.40;;;;;;;;;;4969029;28;20406;-62
2022/09/03 13:01:50;;;;;;;1.30;1.20;;;;;;;;;;4988660;28;20049;-62
2022/09/03 13:04:25;;;;;;;1.58;1.30;;;;;;;;;;4975525;28;20076;-62
2022/09/03 13:06:50;;;;;;;2.42;1.40;;;;;;;;;;4980579;28;20027;-62
2022/09/03 13:09:21;;;;;;;6.00;1.50;;;;;;;;;;4989718;28;20041;-63
2022/09/03 13:11:47;;;;;;;2.05;1.40;;;;;;;;;;4983221;28;20053;-62
2022/09/03 13:14:17;;;;;;;2.92;1.45;;;;;;;;;;4968297;28;20468;-62
2022/09/03 13:16:43;;;;;;;3.13;1.38;;;;;;;;;;4979625;28;20029;-62
2022/09/03 13:19:40;;;;;;;1.45;0.98;;;;;;;;;;4992145;28;20030;-63
2022/09/03 13:22:18;;;;;;;2.25;1.00;;;;;;;;;;4989377;28;20022;-63
2022/09/03 13:25:13;;;;;;;1.45;0.90;;;;;;;;;;4989887;28;20041;-62
2022/09/03 13:27:42;;;;;;;1.85;0.95;;;;;;;;;;4991172;28;20072;-63
2022/09/03 13:30:22;;;;;;;1.55;0.98;;;;;;;;;;4989719;28;20042;-63
2022/09/03 13:33:21;;;;;;;2.92;1.10;;;;;;;;;;4988353;28;20077;-63
2022/09/03 13:35:53;;;;;;;2.15;1.00;;;;;;;;;;4983489;28;20482;-61
2022/09/03 13:38:38;;;;;;;1.63;1.02;;;;;;;;;;4990342;28;20118;-62
2022/09/03 13:41:19;;;;;;;2.10;1.13;;;;;;;;;;4973049;28;20038;-62
2022/09/03 13:43:55;;;;;;;1.02;1.02;;;;;;;;;;4991506;28;20034;-62
2022/09/03 13:46:47;;;;;;;1.63;0.90;;;;;;;;;;4986996;28;20383;-62
2022/09/03 13:52:41;;;;;;;1.60;1.42;;;;;;;;;;4986674;28;20047;-60
2022/09/03 13:55:36;;;;;;;1.23;1.10;;;;;;;;;;4989418;28;20157;-61
2022/09/03 13:58:08;;;;;;;1.35;1.10;;;;;;;;;;4959045;28;20173;-60
2022/09/03 14:03:59;;;;;;;1.30;1.20;;;;;;;;;;4966506;28;20042;-62
2022/09/03 14:06:35;;;;;;;4.43;1.20;;;;;;;;;;4970201;28;20037;-61
2022/09/03 14:09:34;;;;;;;3.15;1.27;;;;;;;;;;4968790;28;20034;-62
2022/09/03 14:12:27;;;;;;;2.55;1.17;;;;;;;;;;4967933;28;20382;-62
2022/09/03 14:15:16;;;;;;;2.45;1.20;;;;;;;;;;4967395;28;20035;-64
2022/09/03 14:17:52;;;;;;;1.98;1.02;;;;;;;;;;4961754;28;20042;-62
2022/09/03 14:20:29;;;;;;;1.45;1.13;;;;;;;;;;4969779;28;20038;-61
2022/09/03 14:22:54;;;;;;;4.20;1.40;;;;;;;;;;4971246;28;20037;-64
2022/09/03 14:25:22;;;;;;;1.57;1.27;;;;;;;;;;4972003;28;20459;-63
2022/09/03 14:27:48;;;;;;;2.35;1.42;;;;;;;;;;4969279;28;20384;-61
2022/09/03 14:30:32;;;;;;;2.30;1.27;;;;;;;;;;4966143;28;20071;-61
2022/09/03 14:33:22;;;;;;;2.05;1.48;;;;;;;;;;4968143;28;20062;-61
2022/09/03 14:35:58;;;;;;;1.25;1.10;;;;;;;;;;4970988;28;20023;-61
2022/09/03 14:38:31;;;;;;;2.25;1.20;;;;;;;;;;4966904;28;20037;-61
2022/09/03 14:41:15;;;;;;;1.52;1.15;;;;;;;;;;4970502;28;20027;-61
2022/09/03 14:44:03;;;;;;;1.17;1.08;;;;;;;;;;4972765;28;20081;-62
2022/09/03 14:46:45;;;;;;;2.45;1.27;;;;;;;;;;4972582;28;20070;-61
2022/09/03 14:49:10;;;;;;;3.70;1.17;;;;;;;;;;4969430;28;20471;-62
2022/09/03 14:51:54;;;;;;;1.80;1.40;;;;;;;;;;4976095;28;20057;-61
2022/09/03 14:54:46;;;;;;;1.83;1.40;;;;;;;;;;4976263;28;20065;-60
2022/09/03 14:57:35;;;;;;;1.73;1.38;;;;;;;;;;4956475;28;20051;-60
2022/09/03 15:00:10;;;;;;;5.68;1.33;;;;;;;;;;4968090;28;20678;-61
2022/09/03 15:03:08;;;;;;;2.97;1.50;;;;;;;;;;4972403;28;20034;-62
2022/09/03 15:06:05;;;;;;;5.68;1.70;;;;;;;;;;4971873;28;20049;-61
2022/09/03 15:09:04;;;;;;;5.88;1.63;;;;;;;;;;4976171;28;20113;-60
2022/09/03 15:11:33;;;;;;;4.43;2.05;;;;;;;;;;4973495;28;20022;-62
2022/09/03 15:14:11;;;;;;;2.63;1.60;;;;;;;;;;4974396;28;20097;-62
2022/09/03 15:16:52;;;;;;;2.08;1.73;;;;;;;;;;4972119;28;20393;-61
2022/09/03 15:19:36;;;;;;;2.88;1.60;;;;;;;;;;4972440;28;20035;-62
2022/09/03 15:22:22;;;;;;;4.90;1.92;;;;;;;;;;4973432;28;20034;-62
2022/09/03 15:24:57;;;;;;;1.83;1.60;;;;;;;;;;4974720;28;20121;-62
2022/09/03 15:28:02;;;;;;;2.33;1.60;;;;;;;;;;4967548;28;20035;-62
2022/09/03 15:31:24;;;;;;;3.03;1.90;;;;;;;;;;4955537;28;20102;-61
2022/09/03 15:34:16;;;;;;;1.65;1.55;;;;;;;;;;4930721;29;20032;-61
2022/09/03 15:36:48;;;;;;;2.53;2.00;;;;;;;;;;4974086;28;20124;-60
2022/09/03 15:39:26;;;;;;;3.25;2.20;;;;;;;;;;4967611;28;20031;-60
2022/09/03 15:41:56;;;;;;;6.63;3.20;;;;;;;;;;4971424;28;20069;-61
2022/09/03 15:44:23;;;;;;;4.30;2.13;;;;;;;;;;4970712;28;20034;-62
2022/09/03 15:46:56;;;;;;;3.55;2.13;;;;;;;;;;4972182;28;20039;-61
2022/09/03 15:49:41;;;;;;;4.40;2.10;;;;;;;;;;4965587;28;20528;-61
2022/09/03 15:52:10;;;;;;;1.83;1.50;;;;;;;;;;4972873;28;20412;-62